sensor_id;sensor_type;location;lat;lon;timestamp;P1;durP1;ratioP1;P2;durP2;ratioP2
46607;SDS011;32330;51.936;7.184;2023-08-30T03:48:57;16.70;;;14.98;;
46607;SDS011;32330;51.936;7.184;2023-08-30T03:51:26;16.20;;;13.80;;
46607;SDS011;32330;51.936;7.184;2023-08-30T03:53:53;16.02;;;14.52;;
46607;SDS011;32330;51.936;7.184;2023-08-30T03:56:21;16.40;;;14.70;;
46607;SDS011;32330;51.936;7.184;2023-08-30T03:58:49;19.13;;;17.10;;
46607;SDS011;32330;51.936;7.184;2023-08-30T04:01:16;19.65;;;17.30;;
46607;SDS011;32330;51.936;7.184;2023-08-30T04:03:43;18.80;;;16.85;;
46607;SDS011;32330;51.936;7.184;2023-08-30T04:06:12;17.38;;;15.75;;
46607;SDS011;32330;51.936;7.184;2023-08-30T04:08:39;17.25;;;15.55;;
46607;SDS011;32330;51.936;7.184;2023-08-30T04:11:06;20.48;;;18.42;;
46607;SDS011;32330;51.936;7.184;2023-08-30T04:13:33;18.25;;;16.40;;
46607;SDS011;32330;51.936;7.184;2023-08-30T04:16:02;17.83;;;16.13;;
46607;SDS011;32330;51.936;7.184;2023-08-30T04:18:29;18.48;;;15.98;;
46607;SDS011;32330;51.936;7.184;2023-08-30T04:20:57;18.80;;;15.57;;
46607;SDS011;32330;51.936;7.184;2023-08-30T04:23:28;19.00;;;16.80;;
46607;SDS011;32330;51.936;7.184;2023-08-30T04:39:05;24.50;;;14.73;;
46607;SDS011;32330;51.936;7.184;2023-08-30T04:41:33;18.10;;;14.70;;
46607;SDS011;32330;51.936;7.184;2023-08-30T04:44:00;20.60;;;15.07;;
46607;SDS011;32330;51.936;7.184;2023-08-30T04:46:28;19.33;;;16.27;;
46607;SDS011;32330;51.936;7.184;2023-08-30T04:48:57;18.42;;;15.50;;
46607;SDS011;32330;51.936;7.184;2023-08-30T04:51:24;16.77;;;15.18;;
46607;SDS011;32330;51.936;7.184;2023-08-30T04:53:52;15.85;;;14.25;;
46607;SDS011;32330;51.936;7.184;2023-08-30T04:56:21;15.25;;;13.68;;
46607;SDS011;32330;51.936;7.184;2023-08-30T04:58:48;15.27;;;13.65;;
46607;SDS011;32330;51.936;7.184;2023-08-30T05:01:18;15.35;;;13.73;;
46607;SDS011;32330;51.936;7.184;2023-08-30T05:03:50;15.23;;;13.65;;
46607;SDS011;32330;51.936;7.184;2023-08-30T05:06:18;15.57;;;13.48;;
46607;SDS011;32330;51.936;7.184;2023-08-30T05:08:45;16.98;;;15.05;;
46607;SDS011;32330;51.936;7.184;2023-08-30T05:11:15;15.80;;;13.43;;
46607;SDS011;32330;51.936;7.184;2023-08-30T05:13:44;20.67;;;14.25;;
46607;SDS011;32330;51.936;7.184;2023-08-30T05:16:12;16.80;;;14.98;;
46607;SDS011;32330;51.936;7.184;2023-08-30T05:18:40;20.42;;;14.68;;
46607;SDS011;32330;51.936;7.184;2023-08-30T05:21:07;16.63;;;14.98;;
46607;SDS011;32330;51.936;7.184;2023-08-30T05:23:34;18.60;;;14.80;;
46607;SDS011;32330;51.936;7.184;2023-08-30T05:26:02;16.95;;;15.30;;
46607;SDS011;32330;51.936;7.184;2023-08-30T05:28:29;16.90;;;15.27;;
46607;SDS011;32330;51.936;7.184;2023-08-30T05:30:58;17.27;;;14.93;;
46607;SDS011;32330;51.936;7.184;2023-08-30T05:33:48;16.58;;;14.98;;
46607;SDS011;32330;51.936;7.184;2023-08-30T05:36:42;20.85;;;14.88;;
46607;SDS011;32330;51.936;7.184;2023-08-30T05:39:23;17.77;;;14.60;;
46607;SDS011;32330;51.936;7.184;2023-08-30T05:41:55;21.05;;;15.73;;
46607;SDS011;32330;51.936;7.184;2023-08-30T05:44:22;19.90;;;14.82;;
46607;SDS011;32330;51.936;7.184;2023-08-30T05:46:51;16.80;;;15.10;;
46607;SDS011;32330;51.936;7.184;2023-08-30T05:49:18;16.83;;;14.50;;
46607;SDS011;32330;51.936;7.184;2023-08-30T05:51:45;16.33;;;14.38;;
46607;SDS011;32330;51.936;7.184;2023-08-30T05:54:13;21.40;;;13.93;;
46607;SDS011;32330;51.936;7.184;2023-08-30T05:56:40;16.52;;;14.65;;
46607;SDS011;32330;51.936;7.184;2023-08-30T05:59:08;18.55;;;15.05;;
46607;SDS011;32330;51.936;7.184;2023-08-30T06:01:35;20.13;;;15.63;;
46607;SDS011;32330;51.936;7.184;2023-08-30T06:04:04;18.25;;;15.00;;
46607;SDS011;32330;51.936;7.184;2023-08-30T06:06:31;18.10;;;14.80;;
46607;SDS011;32330;51.936;7.184;2023-08-30T06:08:58;21.30;;;14.18;;
46607;SDS011;32330;51.936;7.184;2023-08-30T06:11:25;17.00;;;14.13;;
46607;SDS011;32330;51.936;7.184;2023-08-30T06:13:52;14.93;;;13.52;;
46607;SDS011;32330;51.936;7.184;2023-08-30T06:16:20;16.10;;;13.50;;
46607;SDS011;32330;51.936;7.184;2023-08-30T06:18:47;18.08;;;13.90;;
46607;SDS011;32330;51.936;7.184;2023-08-30T06:21:16;15.77;;;14.05;;
46607;SDS011;32330;51.936;7.184;2023-08-30T06:23:43;16.13;;;14.43;;
46607;SDS011;32330;51.936;7.184;2023-08-30T06:26:10;17.42;;;14.88;;
46607;SDS011;32330;51.936;7.184;2023-08-30T06:28:38;18.38;;;13.77;;
46607;SDS011;32330;51.936;7.184;2023-08-30T06:31:05;18.73;;;14.88;;
46607;SDS011;32330;51.936;7.184;2023-08-30T06:33:33;28.05;;;15.38;;
46607;SDS011;32330;51.936;7.184;2023-08-30T06:36:01;20.08;;;15.43;;
46607;SDS011;32330;51.936;7.184;2023-08-30T06:38:31;21.92;;;15.48;;
46607;SDS011;32330;51.936;7.184;2023-08-30T06:40:58;18.67;;;15.52;;
46607;SDS011;32330;51.936;7.184;2023-08-30T06:43:25;22.73;;;16.38;;
46607;SDS011;32330;51.936;7.184;2023-08-30T06:45:53;20.40;;;17.20;;
46607;SDS011;32330;51.936;7.184;2023-08-30T06:48:20;22.52;;;16.77;;
46607;SDS011;32330;51.936;7.184;2023-08-30T06:50:47;22.65;;;17.90;;
46607;SDS011;32330;51.936;7.184;2023-08-30T06:53:14;20.10;;;17.75;;
46607;SDS011;32330;51.936;7.184;2023-08-30T06:55:43;21.48;;;19.25;;
46607;SDS011;32330;51.936;7.184;2023-08-30T06:58:10;24.70;;;19.40;;
46607;SDS011;32330;51.936;7.184;2023-08-30T07:00:37;24.80;;;19.13;;
46607;SDS011;32330;51.936;7.184;2023-08-30T07:03:04;28.13;;;20.10;;
46607;SDS011;32330;51.936;7.184;2023-08-30T07:05:31;22.38;;;19.65;;
46607;SDS011;32330;51.936;7.184;2023-08-30T07:07:58;23.60;;;18.55;;
46607;SDS011;32330;51.936;7.184;2023-08-30T07:10:25;22.85;;;19.83;;
46607;SDS011;32330;51.936;7.184;2023-08-30T07:12:54;25.60;;;21.27;;
46607;SDS011;32330;51.936;7.184;2023-08-30T07:15:21;24.63;;;21.08;;
46607;SDS011;32330;51.936;7.184;2023-08-30T07:17:48;23.10;;;20.70;;
46607;SDS011;32330;51.936;7.184;2023-08-30T07:20:15;23.30;;;20.20;;
46607;SDS011;32330;51.936;7.184;2023-08-30T07:22:43;26.33;;;20.88;;
46607;SDS011;32330;51.936;7.184;2023-08-30T07:25:10;25.27;;;20.38;;
46607;SDS011;32330;51.936;7.184;2023-08-30T07:27:39;20.40;;;18.20;;
46607;SDS011;32330;51.936;7.184;2023-08-30T07:30:08;23.63;;;19.38;;
46607;SDS011;32330;51.936;7.184;2023-08-30T07:32:36;25.80;;;19.70;;
46607;SDS011;32330;51.936;7.184;2023-08-30T07:35:03;27.73;;;19.45;;
46607;SDS011;32330;51.936;7.184;2023-08-30T07:37:31;26.33;;;19.35;;
46607;SDS011;32330;51.936;7.184;2023-08-30T07:39:58;21.40;;;18.88;;
46607;SDS011;32330;51.936;7.184;2023-08-30T07:42:26;21.38;;;19.08;;
46607;SDS011;32330;51.936;7.184;2023-08-30T07:44:53;21.85;;;19.30;;
46607;SDS011;32330;51.936;7.184;2023-08-30T07:47:21;21.92;;;19.15;;
46607;SDS011;32330;51.936;7.184;2023-08-30T07:49:49;22.38;;;19.63;;
46607;SDS011;32330;51.936;7.184;2023-08-30T07:52:16;26.52;;;18.45;;
46607;SDS011;32330;51.936;7.184;2023-08-30T07:54:43;21.95;;;18.95;;
46607;SDS011;32330;51.936;7.184;2023-08-30T07:57:10;23.55;;;19.30;;
46607;SDS011;32330;51.936;7.184;2023-08-30T07:59:38;20.80;;;18.50;;
46607;SDS011;32330;51.936;7.184;2023-08-30T08:02:08;20.00;;;18.00;;
46607;SDS011;32330;51.936;7.184;2023-08-30T08:04:37;25.02;;;19.23;;
46607;SDS011;32330;51.936;7.184;2023-08-30T08:07:04;22.60;;;18.55;;
46607;SDS011;32330;51.936;7.184;2023-08-30T08:09:31;18.42;;;16.65;;
46607;SDS011;32330;51.936;7.184;2023-08-30T08:11:59;23.00;;;18.40;;
46607;SDS011;32330;51.936;7.184;2023-08-30T08:14:26;24.25;;;18.27;;
46607;SDS011;32330;51.936;7.184;2023-08-30T08:16:54;23.70;;;17.13;;
46607;SDS011;32330;51.936;7.184;2023-08-30T08:19:21;20.55;;;18.40;;
46607;SDS011;32330;51.936;7.184;2023-08-30T08:21:49;18.92;;;16.90;;
46607;SDS011;32330;51.936;7.184;2023-08-30T08:24:19;18.50;;;16.52;;
46607;SDS011;32330;51.936;7.184;2023-08-30T08:26:46;21.15;;;18.15;;
46607;SDS011;32330;51.936;7.184;2023-08-30T08:29:13;18.38;;;16.55;;
46607;SDS011;32330;51.936;7.184;2023-08-30T08:31:40;19.50;;;15.75;;
46607;SDS011;32330;51.936;7.184;2023-08-30T08:34:09;17.70;;;15.63;;
46607;SDS011;32330;51.936;7.184;2023-08-30T08:36:37;20.50;;;18.10;;
46607;SDS011;32330;51.936;7.184;2023-08-30T08:39:07;17.35;;;15.48;;
46607;SDS011;32330;51.936;7.184;2023-08-30T08:41:35;19.83;;;16.05;;
46607;SDS011;32330;51.936;7.184;2023-08-30T08:44:06;19.25;;;14.98;;
46607;SDS011;32330;51.936;7.184;2023-08-30T08:46:34;16.95;;;14.93;;
46607;SDS011;32330;51.936;7.184;2023-08-30T08:49:05;17.42;;;14.90;;
46607;SDS011;32330;51.936;7.184;2023-08-30T08:51:36;16.85;;;15.15;;
46607;SDS011;32330;51.936;7.184;2023-08-30T08:54:04;17.65;;;15.55;;
46607;SDS011;32330;51.936;7.184;2023-08-30T08:56:33;16.73;;;15.05;;
46607;SDS011;32330;51.936;7.184;2023-08-30T08:59:00;16.42;;;14.63;;
46607;SDS011;32330;51.936;7.184;2023-08-30T09:01:27;16.40;;;14.80;;
46607;SDS011;32330;51.936;7.184;2023-08-30T09:03:55;18.38;;;14.90;;
46607;SDS011;32330;51.936;7.184;2023-08-30T09:06:22;15.05;;;13.27;;
46607;SDS011;32330;51.936;7.184;2023-08-30T09:08:50;16.15;;;13.75;;
46607;SDS011;32330;51.936;7.184;2023-08-30T09:11:17;17.65;;;14.65;;
46607;SDS011;32330;51.936;7.184;2023-08-30T09:13:46;16.20;;;13.90;;
46607;SDS011;32330;51.936;7.184;2023-08-30T09:16:13;17.15;;;12.68;;
46607;SDS011;32330;51.936;7.184;2023-08-30T09:18:42;15.77;;;12.23;;
46607;SDS011;32330;51.936;7.184;2023-08-30T09:21:09;15.20;;;11.90;;
46607;SDS011;32330;51.936;7.184;2023-08-30T09:23:37;15.52;;;13.10;;
46607;SDS011;32330;51.936;7.184;2023-08-30T09:26:04;14.43;;;12.82;;
46607;SDS011;32330;51.936;7.184;2023-08-30T09:28:41;12.73;;;10.48;;
46607;SDS011;32330;51.936;7.184;2023-08-30T09:31:16;11.73;;;10.40;;
46607;SDS011;32330;51.936;7.184;2023-08-30T09:33:45;11.32;;;10.02;;
46607;SDS011;32330;51.936;7.184;2023-08-30T09:39:07;10.38;;;9.30;;
46607;SDS011;32330;51.936;7.184;2023-08-30T09:41:36;11.48;;;9.48;;
46607;SDS011;32330;51.936;7.184;2023-08-30T09:44:07;11.90;;;9.45;;
46607;SDS011;32330;51.936;7.184;2023-08-30T09:46:43;14.20;;;9.63;;
46607;SDS011;32330;51.936;7.184;2023-08-30T09:49:12;9.13;;;8.15;;
46607;SDS011;32330;51.936;7.184;2023-08-30T09:51:39;13.20;;;9.68;;
46607;SDS011;32330;51.936;7.184;2023-08-30T09:54:10;10.77;;;8.88;;
46607;SDS011;32330;51.936;7.184;2023-08-30T09:56:41;11.65;;;9.85;;
46607;SDS011;32330;51.936;7.184;2023-08-30T09:59:09;14.40;;;8.88;;
46607;SDS011;32330;51.936;7.184;2023-08-30T10:01:37;10.65;;;8.20;;
46607;SDS011;32330;51.936;7.184;2023-08-30T10:04:07;9.30;;;8.20;;
46607;SDS011;32330;51.936;7.184;2023-08-30T10:06:35;9.02;;;7.55;;
46607;SDS011;32330;51.936;7.184;2023-08-30T10:09:03;9.38;;;8.43;;
46607;SDS011;32330;51.936;7.184;2023-08-30T10:11:34;11.13;;;8.00;;
46607;SDS011;32330;51.936;7.184;2023-08-30T10:14:02;8.25;;;7.35;;
46607;SDS011;32330;51.936;7.184;2023-08-30T10:16:32;8.57;;;6.60;;
46607;SDS011;32330;51.936;7.184;2023-08-30T10:19:09;9.85;;;7.22;;
46607;SDS011;32330;51.936;7.184;2023-08-30T10:21:40;9.10;;;7.35;;
46607;SDS011;32330;51.936;7.184;2023-08-30T10:24:09;7.43;;;6.20;;
46607;SDS011;32330;51.936;7.184;2023-08-30T10:26:41;6.72;;;5.82;;
46607;SDS011;32330;51.936;7.184;2023-08-30T10:29:10;7.20;;;4.47;;
46607;SDS011;32330;51.936;7.184;2023-08-30T10:31:38;5.63;;;5.03;;
46607;SDS011;32330;51.936;7.184;2023-08-30T10:34:13;6.82;;;5.00;;
46607;SDS011;32330;51.936;7.184;2023-08-30T10:36:41;6.88;;;4.72;;
46607;SDS011;32330;51.936;7.184;2023-08-30T10:39:11;7.38;;;4.85;;
46607;SDS011;32330;51.936;7.184;2023-08-30T10:41:53;6.18;;;4.75;;
46607;SDS011;32330;51.936;7.184;2023-08-30T10:44:21;5.68;;;4.75;;
46607;SDS011;32330;51.936;7.184;2023-08-30T10:46:51;6.43;;;5.00;;
46607;SDS011;32330;51.936;7.184;2023-08-30T10:49:21;6.47;;;4.85;;
46607;SDS011;32330;51.936;7.184;2023-08-30T10:51:55;6.35;;;4.80;;
46607;SDS011;32330;51.936;7.184;2023-08-30T10:54:24;5.70;;;5.07;;
46607;SDS011;32330;51.936;7.184;2023-08-30T10:56:54;7.93;;;5.50;;
46607;SDS011;32330;51.936;7.184;2023-08-30T10:59:25;7.20;;;6.28;;
46607;SDS011;32330;51.936;7.184;2023-08-30T11:01:52;7.20;;;6.50;;
46607;SDS011;32330;51.936;7.184;2023-08-30T11:04:22;7.25;;;5.88;;
46607;SDS011;32330;51.936;7.184;2023-08-30T11:06:50;7.68;;;6.97;;
46607;SDS011;32330;51.936;7.184;2023-08-30T11:09:18;7.65;;;6.45;;
46607;SDS011;32330;51.936;7.184;2023-08-30T11:11:48;8.13;;;6.40;;
46607;SDS011;32330;51.936;7.184;2023-08-30T11:14:17;7.65;;;6.80;;
46607;SDS011;32330;51.936;7.184;2023-08-30T11:16:45;7.95;;;7.22;;
46607;SDS011;32330;51.936;7.184;2023-08-30T11:19:13;9.13;;;7.03;;
46607;SDS011;32330;51.936;7.184;2023-08-30T11:21:42;8.57;;;7.57;;
46607;SDS011;32330;51.936;7.184;2023-08-30T11:24:11;8.00;;;7.25;;
46607;SDS011;32330;51.936;7.184;2023-08-30T11:26:38;8.82;;;8.02;;
46607;SDS011;32330;51.936;7.184;2023-08-30T11:29:06;8.45;;;7.65;;
46607;SDS011;32330;51.936;7.184;2023-08-30T11:31:34;8.65;;;7.80;;
46607;SDS011;32330;51.936;7.184;2023-08-30T11:34:01;8.40;;;7.60;;
46607;SDS011;32330;51.936;7.184;2023-08-30T11:36:30;9.65;;;8.65;;
46607;SDS011;32330;51.936;7.184;2023-08-30T11:39:04;8.50;;;7.70;;
46607;SDS011;32330;51.936;7.184;2023-08-30T11:41:33;8.32;;;7.47;;
46607;SDS011;32330;51.936;7.184;2023-08-30T11:44:01;8.25;;;7.55;;
46607;SDS011;32330;51.936;7.184;2023-08-30T11:46:28;8.13;;;7.18;;
46607;SDS011;32330;51.936;7.184;2023-08-30T11:48:57;7.78;;;7.07;;
46607;SDS011;32330;51.936;7.184;2023-08-30T11:51:24;7.63;;;6.85;;
46607;SDS011;32330;51.936;7.184;2023-08-30T11:53:52;8.20;;;7.40;;
46607;SDS011;32330;51.936;7.184;2023-08-30T11:56:21;8.10;;;7.40;;
46607;SDS011;32330;51.936;7.184;2023-08-30T11:58:49;8.23;;;7.43;;
46607;SDS011;32330;51.936;7.184;2023-08-30T12:01:17;9.60;;;8.60;;
46607;SDS011;32330;51.936;7.184;2023-08-30T12:03:45;10.05;;;8.68;;
46607;SDS011;32330;51.936;7.184;2023-08-30T12:06:16;10.18;;;9.25;;
46607;SDS011;32330;51.936;7.184;2023-08-30T12:08:43;11.10;;;10.15;;
46607;SDS011;32330;51.936;7.184;2023-08-30T12:11:17;10.05;;;9.07;;
46607;SDS011;32330;51.936;7.184;2023-08-30T12:13:47;9.65;;;8.85;;
46607;SDS011;32330;51.936;7.184;2023-08-30T12:16:16;9.63;;;8.73;;
46607;SDS011;32330;51.936;7.184;2023-08-30T12:18:44;9.05;;;8.25;;
46607;SDS011;32330;51.936;7.184;2023-08-30T12:21:12;8.50;;;7.70;;
46607;SDS011;32330;51.936;7.184;2023-08-30T12:23:40;8.80;;;7.88;;
46607;SDS011;32330;51.936;7.184;2023-08-30T12:26:08;8.02;;;7.32;;
46607;SDS011;32330;51.936;7.184;2023-08-30T12:28:36;7.57;;;6.80;;
46607;SDS011;32330;51.936;7.184;2023-08-30T12:31:06;7.57;;;6.32;;
46607;SDS011;32330;51.936;7.184;2023-08-30T12:33:33;6.20;;;5.60;;
46607;SDS011;32330;51.936;7.184;2023-08-30T12:36:01;6.05;;;5.22;;
46607;SDS011;32330;51.936;7.184;2023-08-30T12:38:28;5.75;;;5.15;;
46607;SDS011;32330;51.936;7.184;2023-08-30T12:40:56;5.78;;;5.20;;
46607;SDS011;32330;51.936;7.184;2023-08-30T12:43:24;6.13;;;5.22;;
46607;SDS011;32330;51.936;7.184;2023-08-30T12:45:51;5.30;;;4.80;;
46607;SDS011;32330;51.936;7.184;2023-08-30T12:48:20;5.00;;;4.60;;
46607;SDS011;32330;51.936;7.184;2023-08-30T12:50:47;5.65;;;5.07;;
46607;SDS011;32330;51.936;7.184;2023-08-30T12:53:14;5.70;;;4.50;;
46607;SDS011;32330;51.936;7.184;2023-08-30T12:55:42;5.68;;;5.18;;
46607;SDS011;32330;51.936;7.184;2023-08-30T12:58:10;4.95;;;4.45;;
46607;SDS011;32330;51.936;7.184;2023-08-30T13:00:39;5.05;;;4.57;;
46607;SDS011;32330;51.936;7.184;2023-08-30T13:03:07;5.45;;;4.95;;
46607;SDS011;32330;51.936;7.184;2023-08-30T13:05:36;5.72;;;5.22;;
46607;SDS011;32330;51.936;7.184;2023-08-30T13:08:04;5.85;;;5.35;;
46607;SDS011;32330;51.936;7.184;2023-08-30T13:10:32;5.40;;;4.90;;
46607;SDS011;32330;51.936;7.184;2023-08-30T13:12:59;5.47;;;5.00;;
46607;SDS011;32330;51.936;7.184;2023-08-30T13:15:27;4.82;;;4.22;;
46607;SDS011;32330;51.936;7.184;2023-08-30T13:17:54;5.28;;;4.82;;
46607;SDS011;32330;51.936;7.184;2023-08-30T13:20:22;5.85;;;5.35;;
46607;SDS011;32330;51.936;7.184;2023-08-30T13:22:50;5.75;;;5.15;;
46607;SDS011;32330;51.936;7.184;2023-08-30T13:25:17;5.93;;;5.30;;
46607;SDS011;32330;51.936;7.184;2023-08-30T13:27:45;7.72;;;4.95;;
46607;SDS011;32330;51.936;7.184;2023-08-30T13:30:13;5.45;;;5.05;;
46607;SDS011;32330;51.936;7.184;2023-08-30T13:32:40;5.75;;;5.22;;
46607;SDS011;32330;51.936;7.184;2023-08-30T13:35:07;7.35;;;5.93;;
46607;SDS011;32330;51.936;7.184;2023-08-30T13:37:34;5.50;;;5.00;;
46607;SDS011;32330;51.936;7.184;2023-08-30T13:40:03;5.68;;;4.93;;
46607;SDS011;32330;51.936;7.184;2023-08-30T13:42:32;6.95;;;5.28;;
46607;SDS011;32330;51.936;7.184;2023-08-30T13:44:59;5.53;;;5.05;;
46607;SDS011;32330;51.936;7.184;2023-08-30T13:47:26;5.70;;;5.20;;
46607;SDS011;32330;51.936;7.184;2023-08-30T13:49:53;5.95;;;5.20;;
46607;SDS011;32330;51.936;7.184;2023-08-30T13:52:20;5.97;;;5.47;;
46607;SDS011;32330;51.936;7.184;2023-08-30T13:54:47;6.00;;;5.50;;
46607;SDS011;32330;51.936;7.184;2023-08-30T13:57:17;5.95;;;5.45;;
46607;SDS011;32330;51.936;7.184;2023-08-30T13:59:44;6.30;;;5.70;;
46607;SDS011;32330;51.936;7.184;2023-08-30T14:02:11;6.78;;;5.25;;
46607;SDS011;32330;51.936;7.184;2023-08-30T14:04:39;8.57;;;5.78;;
46607;SDS011;32330;51.936;7.184;2023-08-30T14:07:06;5.45;;;4.95;;
46607;SDS011;32330;51.936;7.184;2023-08-30T14:09:34;6.47;;;5.88;;
46607;SDS011;32330;51.936;7.184;2023-08-30T14:12:01;6.20;;;5.68;;
46607;SDS011;32330;51.936;7.184;2023-08-30T14:14:31;6.07;;;5.32;;
46607;SDS011;32330;51.936;7.184;2023-08-30T14:16:58;6.72;;;6.03;;
46607;SDS011;32330;51.936;7.184;2023-08-30T14:19:26;5.88;;;5.38;;
46607;SDS011;32330;51.936;7.184;2023-08-30T14:21:53;6.95;;;6.35;;
46607;SDS011;32330;51.936;7.184;2023-08-30T14:24:21;6.75;;;6.15;;
46607;SDS011;32330;51.936;7.184;2023-08-30T14:26:48;7.13;;;6.43;;
46607;SDS011;32330;51.936;7.184;2023-08-30T14:29:19;7.95;;;6.57;;
46607;SDS011;32330;51.936;7.184;2023-08-30T14:31:49;7.43;;;6.68;;
46607;SDS011;32330;51.936;7.184;2023-08-30T14:34:16;7.65;;;6.43;;
46607;SDS011;32330;51.936;7.184;2023-08-30T14:36:43;6.55;;;5.95;;
46607;SDS011;32330;51.936;7.184;2023-08-30T14:39:12;7.90;;;7.18;;
46607;SDS011;32330;51.936;7.184;2023-08-30T14:41:39;6.88;;;6.22;;
46607;SDS011;32330;51.936;7.184;2023-08-30T14:44:07;7.20;;;6.60;;
46607;SDS011;32330;51.936;7.184;2023-08-30T14:46:34;8.18;;;6.75;;
46607;SDS011;32330;51.936;7.184;2023-08-30T14:49:02;8.15;;;6.57;;
46607;SDS011;32330;51.936;7.184;2023-08-30T14:51:29;7.53;;;6.80;;
46607;SDS011;32330;51.936;7.184;2023-08-30T14:53:56;8.00;;;7.30;;
46607;SDS011;32330;51.936;7.184;2023-08-30T14:56:23;8.07;;;6.35;;
46607;SDS011;32330;51.936;7.184;2023-08-30T14:58:51;6.60;;;6.00;;
46607;SDS011;32330;51.936;7.184;2023-08-30T15:01:18;6.80;;;6.20;;
46607;SDS011;32330;51.936;7.184;2023-08-30T15:03:46;6.82;;;6.15;;
46607;SDS011;32330;51.936;7.184;2023-08-30T15:06:14;7.13;;;6.43;;
46607;SDS011;32330;51.936;7.184;2023-08-30T15:08:41;5.90;;;5.40;;
46607;SDS011;32330;51.936;7.184;2023-08-30T15:11:09;6.63;;;6.03;;
46607;SDS011;32330;51.936;7.184;2023-08-30T15:13:36;6.65;;;6.05;;
46607;SDS011;32330;51.936;7.184;2023-08-30T15:16:04;5.88;;;5.40;;
46607;SDS011;32330;51.936;7.184;2023-08-30T15:18:32;6.35;;;5.78;;
46607;SDS011;32330;51.936;7.184;2023-08-30T15:20:59;6.72;;;5.93;;
46607;SDS011;32330;51.936;7.184;2023-08-30T15:23:28;6.78;;;6.07;;
46607;SDS011;32330;51.936;7.184;2023-08-30T15:25:55;6.55;;;5.57;;
46607;SDS011;32330;51.936;7.184;2023-08-30T15:28:22;6.03;;;5.53;;
46607;SDS011;32330;51.936;7.184;2023-08-30T15:30:50;6.15;;;5.60;;
46607;SDS011;32330;51.936;7.184;2023-08-30T15:33:18;6.40;;;5.75;;
46607;SDS011;32330;51.936;7.184;2023-08-30T15:35:45;6.60;;;6.00;;
46607;SDS011;32330;51.936;7.184;2023-08-30T15:38:13;7.50;;;6.63;;
46607;SDS011;32330;51.936;7.184;2023-08-30T15:40:42;7.53;;;6.82;;
46607;SDS011;32330;51.936;7.184;2023-08-30T15:43:09;7.50;;;6.80;;
46607;SDS011;32330;51.936;7.184;2023-08-30T15:45:36;8.68;;;7.88;;
46607;SDS011;32330;51.936;7.184;2023-08-30T15:48:04;8.63;;;7.70;;
46607;SDS011;32330;51.936;7.184;2023-08-30T15:50:32;7.95;;;7.15;;
46607;SDS011;32330;51.936;7.184;2023-08-30T15:53:00;8.10;;;7.40;;
46607;SDS011;32330;51.936;7.184;2023-08-30T15:55:27;8.60;;;7.80;;
46607;SDS011;32330;51.936;7.184;2023-08-30T15:57:56;8.60;;;6.90;;
46607;SDS011;32330;51.936;7.184;2023-08-30T16:00:24;8.35;;;7.55;;
46607;SDS011;32330;51.936;7.184;2023-08-30T16:02:51;8.27;;;7.45;;
46607;SDS011;32330;51.936;7.184;2023-08-30T16:05:18;8.10;;;7.40;;
46607;SDS011;32330;51.936;7.184;2023-08-30T16:07:45;8.45;;;7.53;;
46607;SDS011;32330;51.936;7.184;2023-08-30T16:10:12;7.80;;;7.05;;
46607;SDS011;32330;51.936;7.184;2023-08-30T16:12:40;7.70;;;6.75;;
46607;SDS011;32330;51.936;7.184;2023-08-30T16:15:09;6.88;;;6.15;;
46607;SDS011;32330;51.936;7.184;2023-08-30T16:17:37;8.65;;;6.93;;
46607;SDS011;32330;51.936;7.184;2023-08-30T16:20:04;7.03;;;6.32;;
46607;SDS011;32330;51.936;7.184;2023-08-30T16:22:32;6.72;;;5.65;;
46607;SDS011;32330;51.936;7.184;2023-08-30T16:24:59;7.63;;;5.93;;
46607;SDS011;32330;51.936;7.184;2023-08-30T16:27:27;9.02;;;7.00;;
46607;SDS011;32330;51.936;7.184;2023-08-30T16:29:54;8.57;;;7.75;;
46607;SDS011;32330;51.936;7.184;2023-08-30T16:32:22;8.55;;;7.72;;
46607;SDS011;32330;51.936;7.184;2023-08-30T16:34:49;8.70;;;7.90;;
46607;SDS011;32330;51.936;7.184;2023-08-30T16:37:17;9.15;;;8.25;;
46607;SDS011;32330;51.936;7.184;2023-08-30T16:39:46;10.32;;;9.43;;
46607;SDS011;32330;51.936;7.184;2023-08-30T16:42:13;9.63;;;8.63;;
46607;SDS011;32330;51.936;7.184;2023-08-30T16:44:40;9.45;;;8.65;;
46607;SDS011;32330;51.936;7.184;2023-08-30T16:47:07;10.40;;;9.35;;
46607;SDS011;32330;51.936;7.184;2023-08-30T16:49:36;11.88;;;9.50;;
46607;SDS011;32330;51.936;7.184;2023-08-30T16:52:03;10.18;;;9.18;;
46607;SDS011;32330;51.936;7.184;2023-08-30T16:54:31;11.30;;;10.20;;
46607;SDS011;32330;51.936;7.184;2023-08-30T16:56:58;10.10;;;9.25;;
46607;SDS011;32330;51.936;7.184;2023-08-30T16:59:28;11.77;;;10.68;;
46607;SDS011;32330;51.936;7.184;2023-08-30T17:01:55;12.50;;;11.27;;
46607;SDS011;32330;51.936;7.184;2023-08-30T17:04:23;11.77;;;10.77;;
46607;SDS011;32330;51.936;7.184;2023-08-30T17:06:52;10.77;;;9.77;;
46607;SDS011;32330;51.936;7.184;2023-08-30T17:09:24;12.02;;;10.55;;
46607;SDS011;32330;51.936;7.184;2023-08-30T17:11:53;12.13;;;11.02;;
46607;SDS011;32330;51.936;7.184;2023-08-30T17:14:20;11.73;;;10.60;;
46607;SDS011;32330;51.936;7.184;2023-08-30T17:16:47;11.55;;;7.97;;
46607;SDS011;32330;51.936;7.184;2023-08-30T17:19:15;10.13;;;7.07;;
46607;SDS011;32330;51.936;7.184;2023-08-30T17:21:43;9.45;;;8.55;;
46607;SDS011;32330;51.936;7.184;2023-08-30T17:24:11;11.05;;;8.40;;
46607;SDS011;32330;51.936;7.184;2023-08-30T17:26:38;9.00;;;7.80;;
46607;SDS011;32330;51.936;7.184;2023-08-30T17:29:06;8.90;;;7.45;;
46607;SDS011;32330;51.936;7.184;2023-08-30T17:31:33;8.63;;;7.43;;
46607;SDS011;32330;51.936;7.184;2023-08-30T17:34:01;8.85;;;7.03;;
46607;SDS011;32330;51.936;7.184;2023-08-30T17:36:28;10.43;;;7.30;;
46607;SDS011;32330;51.936;7.184;2023-08-30T17:38:55;7.78;;;6.97;;
46607;SDS011;32330;51.936;7.184;2023-08-30T17:41:23;6.05;;;5.45;;
46607;SDS011;32330;51.936;7.184;2023-08-30T17:43:51;6.63;;;5.53;;
46607;SDS011;32330;51.936;7.184;2023-08-30T17:46:18;9.18;;;4.28;;
46607;SDS011;32330;51.936;7.184;2023-08-30T17:48:45;4.72;;;2.75;;
46607;SDS011;32330;51.936;7.184;2023-08-30T17:51:12;6.35;;;2.55;;
46607;SDS011;32330;51.936;7.184;2023-08-30T17:53:40;10.35;;;4.63;;
46607;SDS011;32330;51.936;7.184;2023-08-30T17:56:07;7.97;;;2.50;;
46607;SDS011;32330;51.936;7.184;2023-08-30T17:58:36;7.78;;;2.22;;
46607;SDS011;32330;51.936;7.184;2023-08-30T18:01:06;5.53;;;1.98;;
46607;SDS011;32330;51.936;7.184;2023-08-30T18:03:35;6.57;;;2.30;;
46607;SDS011;32330;51.936;7.184;2023-08-30T18:06:02;7.10;;;1.90;;
46607;SDS011;32330;51.936;7.184;2023-08-30T18:11:00;7.85;;;3.00;;
46607;SDS011;32330;51.936;7.184;2023-08-30T18:13:27;6.22;;;2.00;;
46607;SDS011;32330;51.936;7.184;2023-08-30T18:15:57;6.20;;;2.30;;
46607;SDS011;32330;51.936;7.184;2023-08-30T18:21:55;7.07;;;2.30;;
46607;SDS011;32330;51.936;7.184;2023-08-30T18:24:22;7.15;;;2.42;;
46607;SDS011;32330;51.936;7.184;2023-08-30T18:26:50;5.40;;;2.25;;
46607;SDS011;32330;51.936;7.184;2023-08-30T18:29:18;11.50;;;6.47;;
46607;SDS011;32330;51.936;7.184;2023-08-30T18:31:47;9.85;;;2.03;;
46607;SDS011;32330;51.936;7.184;2023-08-30T18:34:15;4.95;;;2.30;;
46607;SDS011;32330;51.936;7.184;2023-08-30T18:36:43;4.10;;;1.55;;
46607;SDS011;32330;51.936;7.184;2023-08-30T18:39:10;5.20;;;1.77;;
46607;SDS011;32330;51.936;7.184;2023-08-30T18:41:38;7.22;;;2.00;;
46607;SDS011;32330;51.936;7.184;2023-08-30T18:44:05;4.63;;;1.90;;
46607;SDS011;32330;51.936;7.184;2023-08-30T18:46:33;5.25;;;1.90;;
46607;SDS011;32330;51.936;7.184;2023-08-30T18:49:01;5.65;;;1.88;;
46607;SDS011;32330;51.936;7.184;2023-08-30T18:51:29;4.78;;;1.77;;